Baumholder, Germany

12:03 AM CEST on October 24, 2014 (GMT +0200)
IRHEINLA46 | Change Station
CLOSE
Current Station
Personal Weather Station
Location: Idar-Oberstein, RHEINLAND-PFALZ
Elevation: 971 ft
Nearby Weather Stations

Elev 971 ft 49.72 °N, 7.30 °E | Updated 5 minutes ago

Clear
Clear
46.2 °F
Feels Like 46 °F
N
0.3
Wind Variable Wind from NW
Gusts 0.0 mph

Today
High -- | Low -- °F
--% Chance of Precip.
Yesterday
High -- | Low -- °F
Precip. -- in
8:06 AM 6:23 PM
New Moon, 0% visible
Pressure 30.28 in
Visibility 6.2 miles
Clouds Clear
Windchill 46 °F
Dew Point 42 °F
Humidity 84%
Rainfall 0.00 in
Snow Depth Not available.
UV 0 out of 12
Pollen Not available.
Air Quality Not available.
Flu Activity Not available.
METAR ETAR 232158Z AUTO 00000KT 9999 CLR 03/02 A3025 RMK AO2 SLP253 T00290020 $

More Conditions Fewer Conditions

Pressure 30.28 in
Visibility 6.2 miles
Clouds Clear
Windchill 46 °F
Dew Point 42 °F
Humidity 84%
Rainfall 0.00 in
Snow Depth Not available.
UV 0 out of 12
Pollen Not available.
Air Quality Not available.
Flu Activity Not available.
METAR ETAR 232158Z AUTO 00000KT 9999 CLR 03/02 A3025 RMK AO2 SLP253 T00290020 $

More Conditions Fewer Conditions

10-Day Weather Forecast

Almanac

Astronomy

Oct. 24, 2014 Rise Set
Actual Time 8:06 AM CEST 6:23 PM CEST
Civil Twilight 7:33 AM CEST 6:55 PM CEST
Nautical Twilight 6:55 AM CEST 7:33 PM CEST
Astronomical Twilight 6:18 AM CEST 8:10 PM CEST
Moon 8:31 AM CEST (10/24) 6:48 PM CEST (10/24)
Length of Visible Light 11h 22m
Length of Day
10h 16m
Tomorrow will be 3m 29s shorter.
New Moon, 0% of the Moon is Illuminated
Oct 23
New Moon
Oct 30
First Quarter
Nov 6
Full
Nov 14
Last Quarter
Nov 22
New

Yesterday's Extremes

Country Highs Country Lows

Community

WunderPhotos

Upload Photos

1,764,383 photos uploaded!

WunderBlogs® & News

Nearby

Snow Depth

Not available.

Earthquake Activity

City Distance Mag. Time & Date
No recent earthquake activity has been reported nearby.
Minimum magnitude displayed is 2.5.

Coastal Water Temperatures

Place Temperature
No Stations Reporting

Nearby Weather Stations